Time;durP1;ratioP1;P1;durP2;ratioP2;P2;SDS_P1;SDS_P2;PMS_P1;PMS_P2;Temp;Humidity;BMP_temperature;BMP_pressure;BME280_temperature;BME280_humidity;BME280_pressure;Samples;Min_cycle;Max_cycle;Signal;HPM_P1;HPM_P2
2023/03/02 00:02:14;;;;;;;78.20;44.20;;;;;;;-2.30;82.38;101389.01;107636;1252;87945;-63
2023/03/02 00:04:59;;;;;;;73.90;40.40;;;;;;;-2.31;82.35;101389.59;107632;1252;95138;-58
2023/03/02 00:07:36;;;;;;;;;;;;;;;-2.33;82.23;101388.46;107627;1253;78897;-58
2023/03/02 00:10:11;;;;;;;74.70;42.10;;;;;;;-2.35;82.26;101385.73;107638;1252;81400;-63
2023/03/02 00:12:48;;;;;;;76.50;42.10;;;;;;;-2.36;82.37;101383.17;107590;1253;99628;-63
2023/03/02 00:15:35;;;;;;;76.50;40.50;;;;;;;-2.36;82.26;101386.15;107625;1253;87551;-63
2023/03/02 00:18:20;;;;;;;78.80;42.70;;;;;;;-2.35;82.70;101386.44;107590;1251;94589;-63
2023/03/02 00:21:09;;;;;;;77.00;43.20;;;;;;;-2.34;82.56;101387.82;107629;1253;78432;-63
2023/03/02 00:23:52;;;;;;;77.60;44.40;;;;;;;-2.36;82.63;101387.92;107637;1253;82097;-62
2023/03/02 00:26:35;;;;;;;77.90;45.20;;;;;;;-2.40;82.62;101385.66;107612;1252;98394;-63
2023/03/02 00:29:18;;;;;;;77.70;43.20;;;;;;;-2.44;82.47;101384.30;107653;1253;88530;-60
2023/03/02 00:32:02;;;;;;;72.30;42.50;;;;;;;-2.46;82.38;101382.80;107610;1252;94308;-61
2023/03/02 00:34:47;;;;;;;74.60;42.50;;;;;;;-2.49;82.67;101384.02;107624;1253;80397;-63
2023/03/02 00:37:25;;;;;;;72.30;42.40;;;;;;;-2.46;82.57;101378.21;107681;1253;80569;-62
2023/03/02 00:40:09;;;;;;;76.00;42.90;;;;;;;-2.45;82.79;101377.11;107617;1253;96297;-59
2023/03/02 00:42:54;;;;;;;75.90;41.60;;;;;;;-2.45;82.76;101379.23;107600;1253;88173;-58
2023/03/02 00:45:37;;;;;;;77.50;42.90;;;;;;;-2.45;82.69;101378.50;107646;1253;94446;-60
2023/03/02 00:48:26;;;;;;;75.10;42.80;;;;;;;-2.48;82.76;101375.83;107600;1253;80932;-61
2023/03/02 00:51:07;;;;;;;82.00;44.40;;;;;;;-2.51;82.64;101378.67;107611;1253;82680;-63
2023/03/02 00:53:51;;;;;;;78.40;42.60;;;;;;;-2.54;82.70;101380.20;107626;1253;97598;-63
2023/03/02 00:56:32;;;;;;;76.00;42.60;;;;;;;-2.55;82.96;101378.17;107593;1253;87910;-63
2023/03/02 00:59:26;;;;;;;83.30;42.90;;;;;;;-2.56;82.99;101386.00;107321;1251;378042;-63
2023/03/02 01:02:11;;;;;;;75.90;42.60;;;;;;;-2.54;82.97;101376.53;107565;1251;80760;-62
2023/03/02 01:04:52;;;;;;;75.30;42.80;;;;;;;-2.53;83.14;101376.63;107644;1253;81941;-57
2023/03/02 01:07:34;;;;;;;75.20;44.00;;;;;;;-2.54;83.17;101380.42;107594;1252;98919;-58
2023/03/02 01:10:14;;;;;;;78.60;44.90;;;;;;;-2.58;83.05;101376.77;107658;1252;87632;-63
2023/03/02 01:12:56;;;;;;;77.10;43.00;;;;;;;-2.61;82.94;101378.86;107586;1253;93050;-62
2023/03/02 01:15:41;;;;;;;81.20;44.00;;;;;;;-2.69;83.02;101381.40;107622;1252;81668;-63
2023/03/02 01:18:26;;;;;;;78.90;42.80;;;;;;;-2.78;82.74;101373.10;107617;1253;82599;-63
2023/03/02 01:21:11;;;;;;;76.00;44.50;;;;;;;-2.82;83.14;101372.23;107642;1253;98121;-57
2023/03/02 01:23:56;;;;;;;75.30;40.10;;;;;;;-2.85;83.34;101368.16;107627;1255;87552;-60
2023/03/02 01:26:40;;;;;;;76.50;42.30;;;;;;;-2.88;83.21;101364.60;107623;1252;95116;-60
2023/03/02 01:29:19;;;;;;;73.40;42.80;;;;;;;-2.87;83.04;101365.63;107607;1253;79624;-58
2023/03/02 01:31:58;;;;;;;75.10;42.70;;;;;;;-2.85;82.92;101361.45;107654;1255;82297;-58
2023/03/02 01:34:41;;;;;;;75.50;42.70;;;;;;;-2.85;83.32;101364.66;107687;1255;99692;-61
2023/03/02 01:37:22;;;;;;;71.10;41.70;;;;;;;-2.87;83.26;101359.46;107666;1251;85444;-60
2023/03/02 01:39:58;;;;;;;78.20;43.60;;;;;;;-2.90;83.09;101358.60;107658;1251;95230;-62
2023/03/02 01:42:49;;;;;;;76.50;42.90;;;;;;;-2.89;83.29;101354.80;107645;1255;79975;-62
2023/03/02 01:45:52;;;;;;;72.90;43.50;;;;;;;-2.79;83.29;101357.45;107639;1251;83090;-62
2023/03/02 01:48:34;;;;;;;78.90;45.10;;;;;;;-2.60;83.69;101359.79;107678;1253;98008;-62
2023/03/02 01:51:21;;;;;;;78.40;42.00;;;;;;;-2.44;83.86;101361.86;107644;1253;87559;-60
2023/03/02 01:54:03;;;;;;;77.50;41.60;;;;;;;-2.18;84.59;101354.81;107629;1252;95782;-59
2023/03/02 01:56:47;;;;;;;70.60;38.00;;;;;;;-1.96;84.91;101351.78;107594;1251;80055;-60
2023/03/02 01:59:29;;;;;;;67.20;36.90;;;;;;;-1.71;85.43;101355.11;107642;1255;84545;-57
2023/03/02 02:02:09;;;;;;;65.90;37.10;;;;;;;-1.47;85.74;101353.31;107645;1251;98031;-56
2023/03/02 02:04:55;;;;;;;68.30;37.50;;;;;;;-1.27;85.87;101347.90;107641;1251;86865;-61
2023/03/02 02:07:37;;;;;;;61.40;35.30;;;;;;;-1.12;85.83;101347.02;107614;1251;94240;-60
2023/03/02 02:10:15;;;;;;;67.20;37.50;;;;;;;-0.98;85.93;101351.13;107608;1251;81239;-57
2023/03/02 02:12:54;;;;;;;67.40;37.10;;;;;;;-0.83;86.08;101353.89;107651;1251;81934;-57
2023/03/02 02:15:37;;;;;;;63.00;34.40;;;;;;;-0.70;86.23;101354.46;107638;1251;98901;-55
2023/03/02 02:18:17;;;;;;;65.30;33.10;;;;;;;-0.56;86.46;101354.34;107669;1252;89658;-56
2023/03/02 02:21:00;;;;;;;56.30;30.50;;;;;;;-0.47;86.42;101354.48;107643;1251;95206;-63
2023/03/02 02:23:46;;;;;;;58.50;32.00;;;;;;;-0.39;86.24;101349.90;107630;1251;81354;-55
2023/03/02 02:26:36;;;;;;;57.20;30.50;;;;;;;-0.31;86.24;101346.73;107638;1252;83182;-56
2023/03/02 02:29:23;;;;;;;54.20;29.40;;;;;;;-0.25;86.10;101346.19;107656;1251;98434;-61
2023/03/02 02:32:12;;;;;;;53.00;27.10;;;;;;;-0.20;86.10;101343.69;107629;1254;88190;-60
2023/03/02 02:34:53;;;;;;;54.90;28.30;;;;;;;-0.10;86.16;101342.38;107643;1253;94515;-62
2023/03/02 02:37:39;;;;;;;50.40;28.80;;;;;;;-0.04;86.06;101336.64;107597;1251;78027;-63
2023/03/02 02:40:40;;;;;;;53.10;30.50;;;;;;;-0.02;86.00;101336.73;107657;1251;82534;-57
2023/03/02 02:43:24;;;;;;;56.60;29.00;;;;;;;0.02;85.98;101337.16;107652;1251;98134;-57
2023/03/02 02:46:03;;;;;;;;;;;;;;;0.03;85.99;101332.45;107653;1251;88046;-60
2023/03/02 02:48:41;;;;;;;52.60;26.00;;;;;;;0.06;85.93;101327.51;107642;1251;95506;-58
2023/03/02 02:51:25;;;;;;;47.20;27.10;;;;;;;0.08;86.11;101316.96;107665;1255;78609;-58
2023/03/02 02:54:06;;;;;;;51.30;27.60;;;;;;;0.15;86.09;101316.30;107636;1253;82892;-62
2023/03/02 02:56:47;;;;;;;48.30;26.10;;;;;;;0.20;85.92;101317.04;107641;1251;98537;-62
2023/03/02 02:59:27;;;;;;;50.80;27.20;;;;;;;0.25;86.00;101319.84;107632;1251;87178;-60
2023/03/02 03:02:18;;;;;;;51.70;27.20;;;;;;;0.23;86.16;101314.89;107617;1251;94795;-60
2023/03/02 03:05:02;;;;;;;49.00;26.30;;;;;;;0.29;86.11;101318.00;107672;1251;81697;-60
2023/03/02 03:07:46;;;;;;;45.70;24.20;;;;;;;0.35;86.15;101314.41;107626;1252;82761;-61
2023/03/02 03:10:33;;;;;;;46.30;26.10;;;;;;;0.43;86.18;101309.09;107661;1251;99509;-61
2023/03/02 03:13:18;;;;;;;41.90;23.30;;;;;;;0.50;86.11;101306.45;107630;1251;87626;-60
2023/03/02 03:16:06;;;;;;;45.00;26.10;;;;;;;0.54;85.93;101311.52;107683;1251;94987;-56
2023/03/02 03:18:47;;;;;;;49.70;26.30;;;;;;;0.54;85.79;101305.67;107657;1251;80464;-61
2023/03/02 03:21:25;;;;;;;47.20;27.10;;;;;;;0.53;85.76;101303.03;107663;1251;83244;-62
2023/03/02 03:24:05;;;;;;;47.00;26.20;;;;;;;0.55;85.84;101305.57;107667;1255;97540;-57
2023/03/02 03:26:49;;;;;;;42.50;24.00;;;;;;;0.61;85.69;101304.52;107665;1251;87371;-57
2023/03/02 03:29:36;;;;;;;40.90;24.30;;;;;;;0.63;85.79;101304.55;107675;1251;92694;-57
2023/03/02 03:32:23;;;;;;;46.80;27.10;;;;;;;0.64;85.78;101297.55;107614;1251;77537;-56
2023/03/02 03:35:07;;;;;;;42.80;25.20;;;;;;;0.64;85.91;101294.77;107683;1255;82563;-56
2023/03/02 03:37:50;;;;;;;44.70;25.20;;;;;;;0.66;85.81;101299.02;107649;1253;99067;-56
2023/03/02 03:40:34;;;;;;;43.50;25.30;;;;;;;0.69;85.66;101302.02;107665;1251;89367;-58
2023/03/02 03:43:13;;;;;;;34.30;19.60;;;;;;;0.68;85.75;101301.17;107671;1251;94514;-58
2023/03/02 03:45:54;;;;;;;39.50;22.80;;;;;;;0.70;85.73;101300.90;107638;1254;79574;-62
2023/03/02 03:48:36;;;;;;;36.90;23.20;;;;;;;0.74;85.74;101304.88;107629;1251;82184;-61
2023/03/02 03:51:21;;;;;;;36.60;22.70;;;;;;;0.74;85.74;101303.44;107629;1253;99878;-57
2023/03/02 03:54:02;;;;;;;39.10;22.60;;;;;;;0.78;85.67;101305.11;107649;1255;88368;-62
2023/03/02 03:56:46;;;;;;;43.10;23.70;;;;;;;0.75;85.81;101305.48;107591;1251;93531;-61
2023/03/02 03:59:26;;;;;;;43.70;23.90;;;;;;;0.73;85.89;101304.22;107646;1251;81400;-56
2023/03/02 04:02:02;;;;;;;40.80;24.50;;;;;;;0.74;85.83;101304.85;107622;1251;83194;-56
2023/03/02 04:04:45;;;;;;;40.80;23.70;;;;;;;0.73;85.84;101301.02;107522;1252;99264;-65
2023/03/02 04:07:27;;;;;;;39.90;25.10;;;;;;;0.76;85.86;101302.75;107507;1252;88806;-62
2023/03/02 04:10:11;;;;;;;44.30;24.70;;;;;;;0.81;85.99;101304.92;107516;1252;94937;-62
2023/03/02 04:12:52;;;;;;;39.30;24.80;;;;;;;0.81;85.94;101303.30;107501;1252;78497;-62
2023/03/02 04:15:30;;;;;;;40.10;23.80;;;;;;;0.80;85.96;101302.66;107533;1252;81127;-64
2023/03/02 04:18:05;;;;;;;39.30;23.10;;;;;;;0.78;85.87;101302.07;107491;1257;95813;-65
2023/03/02 04:20:45;;;;;;;37.20;22.80;;;;;;;0.81;85.85;101298.49;107533;1253;88213;-57
2023/03/02 04:23:33;;;;;;;43.80;25.40;;;;;;;0.81;85.94;101299.04;107495;1252;96003;-58
2023/03/02 04:26:20;;;;;;;44.20;25.40;;;;;;;0.84;85.89;101299.38;107524;1252;78978;-60
2023/03/02 04:29:03;;;;;;;47.30;26.60;;;;;;;0.82;85.97;101300.56;107510;1257;82165;-56
2023/03/02 04:31:47;;;;;;;44.10;26.20;;;;;;;0.80;85.96;101300.91;107503;1252;98740;-56
2023/03/02 04:34:25;;;;;;;47.00;26.80;;;;;;;0.77;86.09;101303.02;107528;1252;88743;-62
2023/03/02 04:37:08;;;;;;;45.90;26.60;;;;;;;0.78;85.93;101297.10;107530;1252;93922;-64
2023/03/02 04:39:54;;;;;;;43.80;27.00;;;;;;;0.81;85.95;101299.06;107535;1252;81666;-57
2023/03/02 04:42:36;;;;;;;46.30;26.80;;;;;;;0.81;86.00;101294.25;107508;1252;83072;-57
2023/03/02 04:45:13;;;;;;;43.90;27.60;;;;;;;0.82;86.09;101296.16;107520;1252;98582;-62
2023/03/02 04:47:55;;;;;;;50.00;28.70;;;;;;;0.85;85.96;101291.67;107553;1252;87584;-62
2023/03/02 04:50:36;;;;;;;44.50;27.40;;;;;;;0.86;85.93;101290.17;107507;1252;94327;-58
2023/03/02 04:53:24;;;;;;;47.30;27.10;;;;;;;0.91;85.91;101295.13;107511;1252;78766;-58
2023/03/02 04:56:01;;;;;;;48.40;29.20;;;;;;;0.90;85.92;101294.12;107531;1252;81248;-60
2023/03/02 04:58:39;;;;;;;45.20;26.30;;;;;;;0.90;86.02;101295.27;107536;1252;96591;-61
2023/03/02 05:01:18;;;;;;;47.70;28.10;;;;;;;0.88;85.93;101296.78;107529;1252;88447;-62
2023/03/02 05:03:53;;;;;;;44.00;26.10;;;;;;;0.92;85.89;101298.27;107534;1252;94793;-56
2023/03/02 05:06:29;;;;;;;45.70;27.10;;;;;;;0.96;85.85;101304.34;107534;1252;80624;-58
2023/03/02 05:09:09;;;;;;;45.60;25.90;;;;;;;1.01;85.95;101303.88;107553;1252;83420;-63
2023/03/02 05:11:56;;;;;;;45.50;27.10;;;;;;;1.00;86.11;101300.39;107511;1252;98057;-63
2023/03/02 05:14:40;;;;;;;46.70;28.50;;;;;;;1.01;86.18;101308.79;107537;1257;89262;-62
2023/03/02 05:17:17;;;;;;;48.60;28.70;;;;;;;0.99;86.13;101311.28;107525;1252;95152;-60
2023/03/02 05:19:57;;;;;;;48.80;29.30;;;;;;;0.97;86.14;101314.92;107533;1256;78975;-62
2023/03/02 05:22:41;;;;;;;50.50;28.20;;;;;;;1.00;86.20;101317.07;107501;1257;83220;-64
2023/03/02 05:25:25;;;;;;;47.00;28.50;;;;;;;1.00;85.93;101319.55;107526;1252;97662;-61
2023/03/02 05:28:06;;;;;;;52.20;30.00;;;;;;;0.98;85.96;101322.48;107507;1252;88926;-62
2023/03/02 05:30:45;;;;;;;49.40;30.00;;;;;;;0.96;85.97;101320.88;107502;1252;93652;-58
2023/03/02 05:33:23;;;;;;;47.20;27.90;;;;;;;0.93;86.08;101319.81;107543;1252;80988;-58
2023/03/02 05:35:59;;;;;;;48.40;29.60;;;;;;;0.94;86.09;101324.90;107461;1257;82326;-61
2023/03/02 05:38:36;;;;;;;51.10;29.30;;;;;;;0.93;86.06;101324.97;107575;1257;96317;-58
2023/03/02 05:41:15;;;;;;;47.50;28.90;;;;;;;0.92;86.17;101324.33;107545;1252;88824;-58
2023/03/02 05:43:53;;;;;;;48.80;29.60;;;;;;;0.97;86.14;101326.83;107561;1257;94687;-58
2023/03/02 05:46:33;;;;;;;54.40;32.40;;;;;;;1.00;86.22;101327.48;107514;1252;77896;-57
2023/03/02 05:49:09;;;;;;;52.50;31.60;;;;;;;0.96;86.18;101325.48;107524;1252;82971;-62
2023/03/02 05:51:54;;;;;;;60.00;34.10;;;;;;;0.95;86.07;101330.52;107538;1252;98236;-64
2023/03/02 05:54:33;;;;;;;57.70;34.50;;;;;;;0.95;86.14;101335.48;107542;1252;86937;-57
2023/03/02 05:57:17;;;;;;;59.30;34.30;;;;;;;0.99;86.06;101337.11;107543;1257;94337;-58
2023/03/02 06:00:04;;;;;;;59.10;33.40;;;;;;;0.99;86.03;101339.23;107535;1252;81207;-56
2023/03/02 06:02:48;;;;;;;61.40;34.90;;;;;;;1.00;86.07;101340.45;107568;1252;82817;-56
2023/03/02 06:05:33;;;;;;;57.40;33.80;;;;;;;1.01;86.15;101349.80;107567;1257;97502;-64
2023/03/02 06:08:15;;;;;;;58.70;35.70;;;;;;;0.99;86.20;101344.27;107525;1256;86492;-63
2023/03/02 06:10:57;;;;;;;66.80;36.50;;;;;;;1.04;86.02;101343.88;107500;1252;96066;-58
2023/03/02 06:13:37;;;;;;;66.50;36.50;;;;;;;0.97;86.02;101349.88;107518;1252;80781;-59
2023/03/02 06:16:23;;;;;;;65.90;37.80;;;;;;;0.96;86.04;101354.19;107527;1252;82832;-57
2023/03/02 06:19:08;;;;;;;63.00;37.80;;;;;;;0.96;86.15;101355.65;107522;1252;98677;-56
2023/03/02 06:21:50;;;;;;;66.00;38.00;;;;;;;0.94;86.16;101360.18;107523;1252;88859;-55
2023/03/02 06:24:35;;;;;;;62.00;35.00;;;;;;;0.93;86.22;101367.90;107510;1253;92733;-56
2023/03/02 06:27:14;;;;;;;65.80;36.30;;;;;;;0.97;86.24;101374.67;107528;1253;81412;-55
2023/03/02 06:29:54;;;;;;;65.70;38.90;;;;;;;1.00;86.32;101376.05;107562;1252;82744;-58
2023/03/02 06:32:36;;;;;;;66.40;36.60;;;;;;;0.98;86.40;101379.77;107540;1252;96056;-57
2023/03/02 06:35:12;;;;;;;63.70;38.90;;;;;;;0.93;86.44;101381.53;107532;1252;88086;-63
2023/03/02 06:37:55;;;;;;;70.60;38.70;;;;;;;0.95;86.31;101384.26;107524;1252;95006;-63
2023/03/02 06:40:39;;;;;;;63.60;37.80;;;;;;;0.97;86.32;101387.27;107502;1252;80239;-56
2023/03/02 06:43:24;;;;;;;65.70;37.90;;;;;;;0.99;86.32;101385.61;107546;1252;82179;-57
2023/03/02 06:46:04;;;;;;;61.50;34.40;;;;;;;1.02;86.24;101384.29;107454;1252;96937;-56
2023/03/02 06:48:41;;;;;;;68.20;37.30;;;;;;;1.02;86.39;101384.81;107543;1252;88021;-61
2023/03/02 06:51:16;;;;;;;66.50;36.70;;;;;;;1.04;86.32;101381.45;107511;1252;95574;-63
2023/03/02 06:54:00;;;;;;;64.90;39.20;;;;;;;1.06;86.32;101379.38;107547;1252;79798;-63
2023/03/02 06:56:42;;;;;;;66.50;38.80;;;;;;;1.10;86.41;101386.03;107547;1252;81617;-64
2023/03/02 06:59:26;;;;;;;70.70;39.90;;;;;;;1.12;86.52;101381.44;107518;1252;98507;-58
2023/03/02 07:02:09;;;;;;;74.40;42.00;;;;;;;1.14;86.61;101381.73;107531;1252;86851;-59
2023/03/02 07:04:53;;;;;;;70.00;40.10;;;;;;;1.14;86.53;101382.06;107524;1252;95030;-61
2023/03/02 07:07:37;;;;;;;65.40;37.20;;;;;;;1.14;86.39;101374.73;107500;1252;81458;-61
2023/03/02 07:10:14;;;;;;;61.90;36.60;;;;;;;1.19;86.23;101380.98;107568;1253;83017;-58
2023/03/02 07:12:52;;;;;;;64.00;36.70;;;;;;;1.25;86.34;101377.91;107510;1254;98036;-57
2023/03/02 07:15:34;;;;;;;55.50;34.30;;;;;;;1.24;86.47;101381.02;107554;1252;88880;-61
2023/03/02 07:18:17;;;;;;;58.40;34.10;;;;;;;1.25;86.48;101381.45;107501;1252;95862;-61
2023/03/02 07:21:00;;;;;;;59.90;35.80;;;;;;;1.29;86.59;101375.30;107545;1253;79608;-56
2023/03/02 07:23:40;;;;;;;61.00;35.90;;;;;;;1.28;86.58;101371.64;107516;1253;83309;-59
2023/03/02 07:26:26;;;;;;;64.10;36.20;;;;;;;1.25;86.52;101372.93;107537;1252;98043;-57
2023/03/02 07:29:12;;;;;;;62.30;38.70;;;;;;;1.26;86.38;101373.58;107552;1252;86580;-57
2023/03/02 07:31:56;;;;;;;69.50;37.80;;;;;;;1.30;86.37;101371.52;107530;1253;94518;-57
2023/03/02 07:34:33;;;;;;;61.90;36.90;;;;;;;1.30;86.63;101373.67;107562;1253;81173;-58
2023/03/02 07:37:16;;;;;;;59.50;35.90;;;;;;;1.32;86.56;101375.45;107557;1252;80599;-56
2023/03/02 07:39:53;;;;;;;61.70;36.90;;;;;;;1.38;86.70;101366.16;107589;1252;97826;-60
2023/03/02 07:42:34;;;;;;;59.30;36.00;;;;;;;1.39;86.63;101365.20;107552;1252;88244;-58
2023/03/02 07:45:11;;;;;;;67.30;38.40;;;;;;;1.42;86.66;101360.71;107536;1257;95572;-57
2023/03/02 07:47:49;;;;;;;59.20;36.10;;;;;;;1.45;86.74;101363.17;107517;1253;77848;-58
2023/03/02 07:50:34;;;;;;;59.60;35.70;;;;;;;1.52;86.65;101365.02;107573;1252;82753;-59
2023/03/02 07:53:12;;;;;;;60.50;36.30;;;;;;;1.54;86.58;101362.17;107538;1253;97424;-58
2023/03/02 07:55:51;;;;;;;59.80;34.30;;;;;;;1.56;86.58;101358.45;107547;1253;89720;-56
2023/03/02 07:58:29;;;;;;;58.90;36.00;;;;;;;1.56;86.41;101356.91;107496;1252;95372;-57
2023/03/02 08:01:08;;;;;;;59.30;35.40;;;;;;;1.61;86.47;101356.17;107522;1252;80073;-58
2023/03/02 08:03:43;;;;;;;57.60;35.00;;;;;;;1.68;86.26;101352.25;107533;1252;81167;-56
2023/03/02 08:06:21;;;;;;;60.40;35.60;;;;;;;1.69;86.41;101351.70;107510;1254;96802;-56
2023/03/02 08:08:55;;;;;;;61.80;35.40;;;;;;;1.73;86.42;101350.99;107536;1252;87424;-61
2023/03/02 08:11:32;;;;;;;56.90;34.50;;;;;;;1.77;86.54;101350.03;107519;1253;94788;-62
2023/03/02 08:14:08;;;;;;;60.80;35.50;;;;;;;1.83;86.31;101350.55;107506;1252;77828;-57
2023/03/02 08:16:45;;;;;;;58.80;33.80;;;;;;;1.83;86.55;101351.74;107524;1252;80402;-57
2023/03/02 08:19:25;;;;;;;62.40;36.50;;;;;;;1.91;86.62;101351.03;107520;1252;97125;-62
2023/03/02 08:22:02;;;;;;;56.90;35.00;;;;;;;1.98;86.53;101344.06;107521;1252;87911;-63
2023/03/02 08:24:42;;;;;;;59.00;35.40;;;;;;;2.01;86.59;101347.98;107484;1252;94933;-63
2023/03/02 08:27:18;;;;;;;60.20;35.70;;;;;;;2.03;86.60;101343.03;107500;1253;81609;-63
2023/03/02 08:29:56;;;;;;;59.50;35.10;;;;;;;2.04;86.55;101344.91;107541;1252;81267;-60
2023/03/02 08:32:40;;;;;;;57.60;34.80;;;;;;;2.12;86.56;101345.70;107560;1253;98049;-60
2023/03/02 08:35:18;;;;;;;51.40;31.70;;;;;;;2.20;86.83;101342.25;107549;1252;86514;-62
2023/03/02 08:38:04;;;;;;;56.70;33.00;;;;;;;2.27;86.67;101341.40;107518;1252;93100;-62
2023/03/02 08:40:39;;;;;;;62.90;35.70;;;;;;;2.33;86.71;101341.83;107528;1252;78539;-60
2023/03/02 08:43:14;;;;;;;69.80;38.50;;;;;;;2.38;86.60;101337.02;107513;1253;82153;-60
2023/03/02 08:45:50;;;;;;;;;;;;;;;2.41;86.41;101341.23;107509;1252;98254;-60
2023/03/02 08:48:34;;;;;;;71.00;38.90;;;;;;;2.40;86.55;101340.59;107497;1253;88288;-60
2023/03/02 08:51:11;;;;;;;68.50;38.60;;;;;;;2.45;86.23;101345.89;107505;1253;95068;-60
2023/03/02 08:53:55;;;;;;;63.00;38.10;;;;;;;2.47;86.46;101344.31;107522;1252;81616;-59
2023/03/02 08:56:35;;;;;;;54.30;33.60;;;;;;;2.51;86.33;101346.16;107584;1253;82614;-58
2023/03/02 08:59:14;;;;;;;56.30;34.00;;;;;;;2.54;86.48;101347.90;107184;1252;491226;-62
2023/03/02 09:01:53;;;;;;;60.40;37.50;;;;;;;2.62;86.42;101347.26;107549;1253;88587;-61
2023/03/02 09:04:33;;;;;;;59.70;35.80;;;;;;;2.73;86.07;101343.25;107499;1252;95012;-58
2023/03/02 09:07:16;;;;;;;53.90;33.20;;;;;;;2.80;85.89;101341.99;107496;1257;79681;-57
2023/03/02 09:09:56;;;;;;;49.00;29.40;;;;;;;2.85;85.71;101341.77;107551;1252;81991;-63
2023/03/02 09:12:35;;;;;;;44.00;28.10;;;;;;;2.88;85.56;101339.95;107456;1257;98769;-63
2023/03/02 09:15:11;;;;;;;46.70;28.40;;;;;;;2.86;85.58;101342.39;107377;1253;88532;-64
2023/03/02 09:17:52;;;;;;;47.50;28.70;;;;;;;2.87;85.59;101343.75;107492;1252;96023;-62
2023/03/02 09:20:37;;;;;;;43.00;26.60;;;;;;;2.91;85.91;101340.44;107540;1257;80172;-63
2023/03/02 09:23:12;;;;;;;40.40;27.00;;;;;;;3.01;85.57;101337.89;107538;1252;81535;-64
2023/03/02 09:25:55;;;;;;;42.80;25.00;;;;;;;3.06;85.52;101337.87;107544;1252;98933;-59
2023/03/02 09:28:36;;;;;;;40.60;24.20;;;;;;;3.09;85.79;101336.00;107524;1252;88655;-59
2023/03/02 09:31:18;;;;;;;41.90;25.20;;;;;;;3.16;85.33;101336.15;107542;1252;95681;-63
2023/03/02 09:34:00;;;;;;;41.70;23.30;;;;;;;3.14;85.49;101336.14;107537;1253;78716;-60
2023/03/02 09:36:39;;;;;;;36.60;22.60;;;;;;;3.12;85.69;101333.42;107526;1252;79544;-60
2023/03/02 09:39:19;;;;;;;33.80;22.60;;;;;;;3.12;85.48;101336.48;107490;1253;98954;-56
2023/03/02 09:42:42;;;;;;;33.90;20.80;;;;;;;3.17;85.27;101329.15;107494;1252;89009;-57
2023/03/02 09:45:40;;;;;;;33.00;19.70;;;;;;;3.21;85.21;101321.16;107531;1257;94762;-63
2023/03/02 09:48:29;;;;;;;25.60;16.60;;;;;;;3.36;85.00;101318.36;107569;1253;80811;-61
2023/03/02 09:51:26;;;;;;;26.60;17.00;;;;;;;3.33;85.07;101321.45;107547;1254;82902;-63
2023/03/02 09:54:16;;;;;;;25.80;16.40;;;;;;;3.41;85.04;101313.52;107524;1253;99263;-63
2023/03/02 09:56:53;;;;;;;29.10;18.30;;;;;;;3.55;84.74;101311.29;107589;1253;89247;-64
2023/03/02 09:59:33;;;;;;;30.90;19.40;;;;;;;3.70;84.56;101310.86;107545;1253;95571;-58
2023/03/02 10:02:24;;;;;;;30.20;18.20;;;;;;;3.75;84.55;101303.33;107520;1257;82236;-57
2023/03/02 10:05:10;;;;;;;28.80;18.00;;;;;;;3.88;84.26;101308.31;107587;1254;81987;-59
2023/03/02 10:07:52;;;;;;;31.50;19.00;;;;;;;3.99;84.77;101303.30;107509;1257;98580;-59
2023/03/02 10:10:43;;;;;;;23.80;16.00;;;;;;;4.16;84.55;101306.30;107512;1257;88658;-59
2023/03/02 10:13:29;;;;;;;18.40;13.10;;;;;;;4.36;84.32;101306.51;107546;1255;95160;-59
2023/03/02 10:16:28;;;;;;;17.80;12.50;;;;;;;4.46;83.92;101303.79;107543;1253;77227;-62
2023/03/02 10:19:24;;;;;;;20.80;12.10;;;;;;;4.35;83.37;101305.08;107539;1257;82587;-57
2023/03/02 10:22:26;;;;;;;17.30;11.90;;;;;;;4.20;83.37;101304.05;107516;1257;98616;-58
2023/03/02 10:25:25;;;;;;;16.20;10.80;;;;;;;4.05;83.33;101300.12;107542;1257;88537;-59
2023/03/02 10:28:15;;;;;;;15.90;11.40;;;;;;;4.03;82.92;101300.29;107512;1257;94488;-59
2023/03/02 10:31:03;;;;;;;18.30;12.10;;;;;;;3.90;82.95;101300.47;107484;1257;78020;-59
2023/03/02 10:33:42;;;;;;;19.50;12.30;;;;;;;3.82;83.14;101296.46;107536;1253;80433;-62
2023/03/02 10:36:28;;;;;;;17.20;12.10;;;;;;;3.77;83.28;101298.11;107521;1257;99015;-64
2023/03/02 10:39:07;;;;;;;18.10;11.30;;;;;;;3.78;83.23;101296.98;107554;1256;88459;-58
2023/03/02 10:41:52;;;;;;;13.50;9.00;;;;;;;3.81;83.25;101296.04;107515;1257;94125;-61
2023/03/02 10:44:40;;;;;;;14.30;9.80;;;;;;;3.84;83.15;101295.77;107531;1253;80119;-61
2023/03/02 10:47:31;;;;;;;14.40;9.30;;;;;;;3.94;82.93;101290.55;107545;1253;82225;-61
2023/03/02 10:50:23;;;;;;;17.20;11.50;;;;;;;4.05;83.09;101286.91;107588;1253;97081;-60
2023/03/02 10:53:06;;;;;;;18.60;12.00;;;;;;;4.11;82.94;101284.95;107536;1256;88665;-59
2023/03/02 10:55:49;;;;;;;18.40;13.00;;;;;;;4.25;82.88;101280.08;107533;1257;93886;-57
2023/03/02 10:58:40;;;;;;;25.20;13.30;;;;;;;4.44;82.58;101272.62;107546;1257;81644;-56
2023/03/02 11:01:21;;;;;;;21.80;13.40;;;;;;;4.51;82.37;101271.60;107510;1254;82805;-58
2023/03/02 11:04:19;;;;;;;17.00;12.40;;;;;;;4.62;82.21;101270.86;107535;1255;96465;-57
2023/03/02 11:07:11;;;;;;;18.60;12.70;;;;;;;4.66;81.33;101268.77;107499;1254;88441;-57
2023/03/02 11:10:01;;;;;;;16.20;11.70;;;;;;;4.53;81.31;101272.39;107471;1254;95272;-63
2023/03/02 11:12:45;;;;;;;13.00;9.60;;;;;;;4.47;81.32;101269.66;107462;1255;79604;-63
2023/03/02 11:15:27;;;;;;;16.20;11.20;;;;;;;4.39;81.05;101271.77;107523;1258;82042;-63
2023/03/02 11:18:18;;;;;;;17.50;11.80;;;;;;;4.38;81.02;101269.16;107503;1254;99093;-63
2023/03/02 11:21:04;;;;;;;16.30;11.80;;;;;;;4.29;81.06;101263.20;107532;1254;89178;-58
2023/03/02 11:23:56;;;;;;;18.40;11.80;;;;;;;4.29;80.78;101260.17;107507;1254;92874;-64
2023/03/02 11:26:38;;;;;;;22.30;13.40;;;;;;;4.29;80.53;101262.66;107499;1254;80695;-64
2023/03/02 11:29:30;;;;;;;18.50;12.70;;;;;;;4.16;80.68;101256.78;107528;1256;81186;-58
2023/03/02 11:32:20;;;;;;;17.70;11.40;;;;;;;4.03;80.66;101257.66;107497;1258;98519;-59
2023/03/02 11:35:05;;;;;;;16.70;10.80;;;;;;;4.01;80.89;101255.02;107515;1254;87628;-63
2023/03/02 11:37:42;;;;;;;;;;;;;;;3.99;80.75;101256.96;107513;1257;95242;-64
2023/03/02 11:40:26;;;;;;;15.50;11.00;;;;;;;3.98;80.65;101251.67;107480;1255;80581;-63
2023/03/02 11:43:04;;;;;;;18.70;12.00;;;;;;;3.96;80.49;101256.27;107539;1255;82941;-64
2023/03/02 11:45:48;;;;;;;18.20;12.70;;;;;;;3.91;80.52;101258.66;107523;1254;97526;-57
2023/03/02 11:48:33;;;;;;;20.40;12.90;;;;;;;3.84;80.43;101256.96;107492;1254;88628;-58
2023/03/02 11:51:19;;;;;;;17.10;11.60;;;;;;;3.79;80.30;101256.29;107493;1253;95556;-57
2023/03/02 11:54:04;;;;;;;19.00;12.50;;;;;;;3.77;80.14;101259.71;107485;1255;80233;-57
2023/03/02 11:56:45;;;;;;;18.10;12.50;;;;;;;3.74;80.27;101257.95;107511;1254;79904;-57
2023/03/02 11:59:30;;;;;;;20.30;12.70;;;;;;;3.71;80.29;101256.05;107513;1255;98773;-63
2023/03/02 12:02:15;;;;;;;21.80;13.50;;;;;;;3.74;80.36;101251.16;107505;1258;89127;-63
2023/03/02 12:05:04;;;;;;;19.40;13.30;;;;;;;3.79;80.49;101250.05;107476;1253;94853;-64
2023/03/02 12:07:56;;;;;;;17.70;12.20;;;;;;;3.86;80.41;101248.23;107498;1258;80393;-63
2023/03/02 12:10:44;;;;;;;16.60;11.50;;;;;;;3.95;80.53;101247.48;107480;1254;82352;-59
2023/03/02 12:13:32;;;;;;;16.20;10.70;;;;;;;4.01;80.29;101243.95;107477;1254;98885;-60
2023/03/02 12:16:39;;;;;;;15.40;11.00;;;;;;;4.06;80.34;101243.34;107485;1256;86897;-60
2023/03/02 12:19:27;;;;;;;16.00;11.10;;;;;;;4.16;80.22;101235.92;107501;1256;93138;-63
2023/03/02 12:22:07;;;;;;;17.70;10.40;;;;;;;4.29;80.32;101236.85;107526;1258;79976;-62